Terminal Aerodrome Forecast
Issued by NWS

Home | Current Version | Previous Version | Text Only | Print | Product List | Glossary Off
Versions: 1 2 3 4 5 6 7 8 9 10 11 12 13

000
FTUS43 KBIS 230500
TAFJMS
TAF
KJMS 230536Z 2306/2406 23006KT P6SM SCT060
     FM231800 23012KT P6SM SKC
     FM240200 19007KT P6SM SCT100=

USA.gov is the U.S. government's official web portal to all federal, state and local government web resources and services.